createdAt,value
2023-01-31T00:00:45.519Z,12.30
2023-01-31T00:01:45.530Z,14.70
2023-01-31T00:02:45.638Z,15.80
2023-01-31T00:03:45.551Z,12.00
2023-01-31T00:04:46.447Z,14.10
2023-01-31T00:05:45.469Z,12.10
2023-01-31T00:06:45.485Z,9.40
2023-01-31T00:07:45.457Z,12.80
2023-01-31T00:08:45.457Z,12.70
2023-01-31T00:09:45.406Z,12.40
2023-01-31T00:10:45.433Z,15.60
2023-01-31T00:11:46.312Z,11.30
2023-01-31T00:12:45.391Z,14.60
2023-01-31T00:13:45.404Z,13.00
2023-01-31T00:14:45.386Z,12.50
2023-01-31T00:15:45.399Z,17.50
2023-01-31T00:16:45.364Z,13.90
2023-01-31T00:17:45.349Z,14.50
2023-01-31T00:18:45.354Z,18.00
2023-01-31T00:19:45.332Z,13.70
2023-01-31T00:20:45.303Z,13.10
2023-01-31T00:21:45.421Z,14.50
2023-01-31T00:22:45.278Z,14.80
2023-01-31T00:23:45.319Z,16.20
2023-01-31T00:24:45.271Z,11.50
2023-01-31T00:25:45.266Z,10.70
2023-01-31T00:26:45.318Z,9.40
2023-01-31T00:27:45.260Z,13.00
2023-01-31T00:28:45.243Z,12.40
2023-01-31T00:29:45.232Z,16.00
2023-01-31T00:30:45.211Z,14.50
2023-01-31T00:31:45.333Z,12.10
2023-01-31T00:32:45.175Z,16.80
2023-01-31T00:33:45.187Z,14.70
2023-01-31T00:34:45.163Z,10.80
2023-01-31T00:35:45.141Z,12.50
2023-01-31T00:36:45.126Z,16.00
2023-01-31T00:37:45.139Z,14.30
2023-01-31T00:38:45.122Z,18.00
2023-01-31T00:39:45.100Z,12.50
2023-01-31T00:40:45.096Z,14.30
2023-01-31T00:41:45.078Z,16.00
2023-01-31T00:42:45.083Z,15.00
2023-01-31T00:43:45.068Z,11.60
2023-01-31T00:44:45.038Z,13.50
2023-01-31T00:45:45.039Z,9.80
2023-01-31T00:46:45.101Z,11.00
2023-01-31T00:47:45.019Z,14.80
2023-01-31T00:48:45.051Z,12.20
2023-01-31T00:49:44.998Z,15.20
2023-01-31T00:50:44.980Z,7.90
2023-01-31T00:51:44.968Z,11.90
2023-01-31T00:52:44.999Z,13.50
2023-01-31T00:53:44.966Z,11.60
2023-01-31T00:54:44.943Z,11.90
2023-01-31T00:55:44.937Z,12.50
2023-01-31T00:56:44.929Z,11.20
2023-01-31T00:57:44.910Z,11.20
2023-01-31T00:58:44.949Z,9.50
2023-01-31T00:59:44.885Z,11.00
2023-01-31T01:00:44.920Z,10.10
2023-01-31T01:01:44.935Z,12.00
2023-01-31T01:02:44.882Z,15.10
2023-01-31T01:03:44.882Z,9.00
2023-01-31T01:04:44.847Z,12.00
2023-01-31T01:05:44.859Z,11.70
2023-01-31T01:06:44.805Z,9.50
2023-01-31T01:07:44.809Z,11.00
2023-01-31T01:08:44.827Z,9.00
2023-01-31T01:09:44.790Z,14.20
2023-01-31T01:10:44.760Z,16.70
2023-01-31T01:11:44.745Z,11.90
2023-01-31T01:12:44.735Z,13.40
2023-01-31T01:13:44.719Z,13.90
2023-01-31T01:14:44.729Z,11.00
2023-01-31T01:15:44.701Z,16.30
2023-01-31T01:16:44.777Z,11.40
2023-01-31T01:17:44.685Z,14.40
2023-01-31T01:18:44.687Z,15.50
2023-01-31T01:19:44.699Z,12.00
2023-01-31T01:20:44.678Z,15.70
2023-01-31T01:21:44.705Z,12.40
2023-01-31T01:22:44.634Z,10.30
2023-01-31T01:23:44.632Z,13.60
2023-01-31T01:24:44.623Z,18.20
2023-01-31T01:25:44.603Z,11.70
2023-01-31T01:26:44.819Z,20.90
2023-01-31T01:27:44.579Z,18.10
2023-01-31T01:28:44.594Z,13.00
2023-01-31T01:29:44.588Z,13.30
2023-01-31T01:30:44.543Z,12.50
2023-01-31T01:31:44.699Z,15.10
2023-01-31T01:32:44.515Z,14.70
2023-01-31T01:33:44.577Z,14.40
2023-01-31T01:34:44.538Z,15.80
2023-01-31T01:35:44.490Z,13.70
2023-01-31T01:36:47.549Z,13.80
2023-01-31T01:37:44.513Z,14.30
2023-01-31T01:38:44.474Z,17.80
2023-01-31T01:39:44.510Z,16.10
2023-01-31T01:40:44.460Z,15.60
2023-01-31T01:41:44.440Z,15.60
2023-01-31T01:42:44.443Z,15.30
2023-01-31T01:43:44.403Z,14.40
2023-01-31T01:44:44.436Z,13.40
2023-01-31T01:45:44.430Z,14.90
2023-01-31T01:46:44.387Z,14.40
2023-01-31T01:47:44.358Z,13.80
2023-01-31T01:48:44.358Z,17.30
2023-01-31T01:49:44.402Z,9.20
2023-01-31T01:50:44.346Z,16.20
2023-01-31T01:51:44.326Z,16.30
2023-01-31T01:52:44.317Z,15.30
2023-01-31T01:53:44.290Z,14.50
2023-01-31T01:54:44.302Z,18.70
2023-01-31T01:55:44.286Z,14.70
2023-01-31T01:56:44.285Z,9.90
2023-01-31T01:57:44.246Z,10.00
2023-01-31T01:58:44.241Z,10.90
2023-01-31T01:59:44.272Z,10.60
2023-01-31T02:00:44.229Z,10.20
2023-01-31T02:01:44.232Z,12.90
2023-01-31T02:02:44.228Z,13.00
2023-01-31T02:03:44.209Z,10.30
2023-01-31T02:04:44.198Z,10.60
2023-01-31T02:05:44.179Z,9.70
2023-01-31T02:06:44.165Z,14.40
2023-01-31T02:07:44.200Z,9.80
2023-01-31T02:08:44.138Z,12.10
2023-01-31T02:09:44.163Z,9.40
2023-01-31T02:10:44.119Z,8.30
2023-01-31T02:11:44.109Z,10.70
2023-01-31T02:12:44.101Z,13.40
2023-01-31T02:13:44.081Z,9.60
2023-01-31T02:14:44.078Z,14.30
2023-01-31T02:15:44.066Z,6.70
2023-01-31T02:16:44.086Z,13.30
2023-01-31T02:17:44.045Z,14.20
2023-01-31T02:18:44.066Z,9.70
2023-01-31T02:19:44.023Z,12.40
2023-01-31T02:20:44.005Z,9.50
2023-01-31T02:21:44.016Z,15.70
2023-01-31T02:22:44.049Z,9.40
2023-01-31T02:23:43.977Z,8.70
2023-01-31T02:24:44.010Z,8.70
2023-01-31T02:25:43.944Z,13.50
2023-01-31T02:26:43.971Z,9.20
2023-01-31T02:27:43.922Z,10.50
2023-01-31T02:28:43.912Z,14.30
2023-01-31T02:29:43.988Z,9.90
2023-01-31T02:30:44.003Z,7.90
2023-01-31T02:31:43.930Z,11.00
2023-01-31T02:32:43.883Z,9.40
2023-01-31T02:33:43.865Z,8.60
2023-01-31T02:34:43.863Z,12.70
2023-01-31T02:35:43.860Z,7.20
2023-01-31T02:36:43.829Z,10.40
2023-01-31T02:37:43.854Z,12.20
2023-01-31T02:38:43.813Z,9.20
2023-01-31T02:39:43.843Z,12.00
2023-01-31T02:40:43.817Z,7.60
2023-01-31T02:41:43.783Z,10.50
2023-01-31T02:42:43.798Z,9.10
2023-01-31T02:43:43.753Z,11.50
2023-01-31T02:44:43.779Z,10.40
2023-01-31T02:45:43.831Z,8.80
2023-01-31T02:46:43.713Z,10.80
2023-01-31T02:47:43.716Z,11.50
2023-01-31T02:48:43.723Z,10.40
2023-01-31T02:49:43.704Z,8.10
2023-01-31T02:50:43.677Z,9.80
2023-01-31T02:51:43.676Z,12.70
2023-01-31T02:52:43.669Z,12.60
2023-01-31T02:53:43.661Z,8.20
2023-01-31T02:54:43.673Z,15.10
2023-01-31T02:55:43.616Z,10.10
2023-01-31T02:56:43.621Z,8.00
2023-01-31T02:57:43.644Z,8.00
2023-01-31T02:58:43.601Z,12.10
2023-01-31T02:59:43.600Z,11.20
2023-01-31T03:00:45.394Z,11.80
2023-01-31T03:01:43.627Z,11.10
2023-01-31T03:02:43.582Z,9.10
2023-01-31T03:03:43.558Z,13.10
2023-01-31T03:04:43.541Z,9.00
2023-01-31T03:05:43.520Z,8.50
2023-01-31T03:06:43.505Z,11.90
2023-01-31T03:07:43.515Z,9.30
2023-01-31T03:08:43.489Z,12.00
2023-01-31T03:09:43.516Z,10.20
2023-01-31T03:10:43.488Z,12.10
2023-01-31T03:11:43.456Z,10.90
2023-01-31T03:12:43.489Z,11.20
2023-01-31T03:13:43.433Z,10.40
2023-01-31T03:14:43.447Z,15.90
2023-01-31T03:15:43.437Z,13.40
2023-01-31T03:16:43.440Z,11.10
2023-01-31T03:17:43.401Z,9.40
2023-01-31T03:18:43.384Z,8.20
2023-01-31T03:19:43.397Z,9.70
2023-01-31T03:20:43.354Z,15.60
2023-01-31T03:21:43.347Z,9.50
2023-01-31T03:22:43.353Z,10.80
2023-01-31T03:23:43.325Z,10.70
2023-01-31T03:24:43.326Z,6.20
2023-01-31T03:25:43.313Z,11.10
2023-01-31T03:26:43.377Z,8.00
2023-01-31T03:27:43.288Z,10.10
2023-01-31T03:28:43.284Z,9.90
2023-01-31T03:29:43.287Z,8.60
2023-01-31T03:30:43.337Z,7.50
2023-01-31T03:31:43.391Z,9.00
2023-01-31T03:32:43.242Z,8.70
2023-01-31T03:33:43.252Z,14.60
2023-01-31T03:34:43.237Z,10.10
2023-01-31T03:35:43.234Z,13.80
2023-01-31T03:36:43.238Z,11.20
2023-01-31T03:37:43.162Z,14.10
2023-01-31T03:38:43.172Z,10.40
2023-01-31T03:39:43.175Z,14.80
2023-01-31T03:40:43.139Z,15.40
2023-01-31T03:41:43.119Z,15.50
2023-01-31T03:42:43.117Z,10.00
2023-01-31T03:43:43.110Z,11.80
2023-01-31T03:44:43.115Z,13.20
2023-01-31T03:45:43.081Z,14.50
2023-01-31T03:46:43.075Z,13.10
2023-01-31T03:47:43.110Z,12.10
2023-01-31T03:48:43.061Z,10.10
2023-01-31T03:49:43.056Z,10.90
2023-01-31T03:50:43.062Z,12.00
2023-01-31T03:51:43.028Z,12.30
2023-01-31T03:52:43.011Z,12.40
2023-01-31T03:53:43.007Z,13.60
2023-01-31T03:54:43.004Z,11.40
2023-01-31T03:55:43.054Z,11.20
2023-01-31T03:56:42.955Z,11.20
2023-01-31T03:57:42.957Z,9.80
2023-01-31T03:58:42.951Z,12.20
2023-01-31T03:59:42.930Z,13.10
2023-01-31T04:00:42.939Z,6.40
2023-01-31T04:01:43.019Z,12.70
2023-01-31T04:02:49.550Z,12.40
2023-01-31T04:03:42.886Z,12.20
2023-01-31T04:04:42.868Z,7.50
2023-01-31T04:05:42.872Z,9.20
2023-01-31T04:06:42.851Z,13.10
2023-01-31T04:07:42.913Z,11.70
2023-01-31T04:08:42.829Z,12.40
2023-01-31T04:09:42.822Z,13.40
2023-01-31T04:10:42.843Z,13.00
2023-01-31T04:11:43.047Z,14.70
2023-01-31T04:12:42.786Z,9.30
2023-01-31T04:13:42.821Z,10.90
2023-01-31T04:14:42.778Z,17.00
2023-01-31T04:15:42.857Z,11.40
2023-01-31T04:16:42.776Z,13.00
2023-01-31T04:17:42.738Z,10.80
2023-01-31T04:18:42.749Z,14.40
2023-01-31T04:19:42.722Z,13.50
2023-01-31T04:20:42.722Z,15.20
2023-01-31T04:21:42.717Z,9.80
2023-01-31T04:22:42.691Z,14.30
2023-01-31T04:23:42.692Z,8.10
2023-01-31T04:24:42.661Z,15.90
2023-01-31T04:25:42.680Z,12.90
2023-01-31T04:26:42.703Z,10.00
2023-01-31T04:27:42.631Z,9.20
2023-01-31T04:28:42.654Z,15.40
2023-01-31T04:29:42.604Z,10.90
2023-01-31T04:30:42.629Z,13.10
2023-01-31T04:31:42.728Z,10.50
2023-01-31T04:32:42.569Z,13.00
2023-01-31T04:33:42.560Z,10.90
2023-01-31T04:34:42.577Z,16.20
2023-01-31T04:35:42.551Z,13.60
2023-01-31T04:36:42.545Z,9.90
2023-01-31T04:37:42.517Z,11.70
2023-01-31T04:38:42.500Z,10.40
2023-01-31T04:39:42.539Z,11.40
2023-01-31T04:40:42.507Z,9.70
2023-01-31T04:41:42.464Z,12.30
2023-01-31T04:42:42.483Z,13.60
2023-01-31T04:43:42.466Z,14.80
2023-01-31T04:44:42.452Z,13.40
2023-01-31T04:45:42.446Z,9.90
2023-01-31T04:46:42.447Z,12.10
2023-01-31T04:47:42.439Z,12.70
2023-01-31T04:48:42.415Z,10.10
2023-01-31T04:49:42.402Z,14.70
2023-01-31T04:50:42.399Z,9.50
2023-01-31T04:51:42.361Z,10.70
2023-01-31T04:52:42.378Z,12.30
2023-01-31T04:53:42.351Z,16.40
2023-01-31T04:54:42.341Z,11.90
2023-01-31T04:55:42.366Z,13.60
2023-01-31T04:56:42.344Z,15.10
2023-01-31T04:57:42.342Z,11.30
2023-01-31T04:58:42.316Z,8.70
2023-01-31T04:59:42.306Z,13.60
2023-01-31T05:00:42.343Z,12.00
2023-01-31T05:01:42.284Z,9.00
2023-01-31T05:02:42.312Z,14.50
2023-01-31T05:03:42.239Z,11.60
2023-01-31T05:04:42.240Z,10.50
2023-01-31T05:05:42.245Z,14.70
2023-01-31T05:06:42.202Z,13.50
2023-01-31T05:07:42.205Z,8.30
2023-01-31T05:08:42.177Z,17.50
2023-01-31T05:09:42.171Z,14.60
2023-01-31T05:10:42.178Z,10.90
2023-01-31T05:11:42.143Z,10.60
2023-01-31T05:12:42.157Z,12.80
2023-01-31T05:13:42.118Z,11.40
2023-01-31T05:14:42.121Z,15.90
2023-01-31T05:15:42.120Z,17.70
2023-01-31T05:16:42.127Z,18.50
2023-01-31T05:17:42.077Z,12.40
2023-01-31T05:18:42.067Z,17.30
2023-01-31T05:19:42.313Z,13.00
2023-01-31T05:20:42.073Z,15.30
2023-01-31T05:21:42.047Z,9.50
2023-01-31T05:22:42.036Z,12.80
2023-01-31T05:23:42.022Z,14.50
2023-01-31T05:24:42.005Z,16.50
2023-01-31T05:25:42.010Z,14.50
2023-01-31T05:26:42.030Z,14.90
2023-01-31T05:27:42.005Z,15.40
2023-01-31T05:28:41.968Z,16.00
2023-01-31T05:29:41.941Z,15.70
2023-01-31T05:30:42.027Z,14.60
2023-01-31T05:31:41.981Z,17.50
2023-01-31T05:32:41.927Z,12.60
2023-01-31T05:33:41.913Z,18.00
2023-01-31T05:34:41.929Z,12.40
2023-01-31T05:35:41.898Z,18.60
2023-01-31T05:36:41.921Z,14.20
2023-01-31T05:37:41.869Z,15.90
2023-01-31T05:38:41.854Z,12.60
2023-01-31T05:39:41.878Z,15.00
2023-01-31T05:40:41.848Z,12.60
2023-01-31T05:41:41.834Z,11.30
2023-01-31T05:42:41.817Z,15.60
2023-01-31T05:43:41.797Z,13.60
2023-01-31T05:44:41.806Z,17.80
2023-01-31T05:45:41.824Z,15.40
2023-01-31T05:46:41.768Z,19.50
2023-01-31T05:47:41.751Z,14.00
2023-01-31T05:48:41.741Z,11.70
2023-01-31T05:49:41.756Z,15.10
2023-01-31T05:50:41.737Z,13.00
2023-01-31T05:51:41.711Z,16.30
2023-01-31T05:52:41.704Z,15.50
2023-01-31T05:53:41.711Z,16.30
2023-01-31T05:54:41.689Z,17.50
2023-01-31T05:55:41.686Z,13.90
2023-01-31T05:56:41.677Z,13.10
2023-01-31T05:57:41.678Z,17.70
2023-01-31T05:58:41.632Z,12.50
2023-01-31T05:59:41.622Z,12.10
2023-01-31T06:00:41.650Z,12.70
2023-01-31T06:01:41.605Z,12.60
2023-01-31T06:02:41.589Z,12.60
2023-01-31T06:03:41.578Z,15.30
2023-01-31T06:04:41.568Z,10.90
2023-01-31T06:05:41.622Z,15.00
2023-01-31T06:06:41.552Z,16.10
2023-01-31T06:07:41.539Z,14.00
2023-01-31T06:08:41.529Z,14.40
2023-01-31T06:09:41.511Z,14.80
2023-01-31T06:10:41.550Z,13.70
2023-01-31T06:11:41.495Z,13.90
2023-01-31T06:12:41.501Z,20.90
2023-01-31T06:13:41.479Z,17.70
2023-01-31T06:14:41.468Z,14.80
2023-01-31T06:15:41.472Z,17.80
2023-01-31T06:16:41.514Z,14.90
2023-01-31T06:17:41.465Z,15.50
2023-01-31T06:18:41.428Z,13.40
2023-01-31T06:19:41.411Z,11.70
2023-01-31T06:20:41.426Z,15.40
2023-01-31T06:21:41.395Z,14.80
2023-01-31T06:22:41.374Z,13.50
2023-01-31T06:23:41.363Z,14.50
2023-01-31T06:24:41.359Z,13.90
2023-01-31T06:25:41.362Z,15.30
2023-01-31T06:26:41.407Z,15.00
2023-01-31T06:27:41.338Z,15.90
2023-01-31T06:28:41.319Z,15.40
2023-01-31T06:29:41.301Z,13.40
2023-01-31T06:30:41.403Z,17.20
2023-01-31T06:31:41.447Z,13.50
2023-01-31T06:32:41.286Z,14.20
2023-01-31T06:33:47.816Z,13.80
2023-01-31T06:34:41.251Z,16.50
2023-01-31T06:35:41.241Z,12.80
2023-01-31T06:36:41.243Z,12.10
2023-01-31T06:37:41.329Z,10.20
2023-01-31T06:38:41.211Z,16.90
2023-01-31T06:39:41.210Z,17.70
2023-01-31T06:40:41.190Z,14.30
2023-01-31T06:41:41.263Z,10.50
2023-01-31T06:42:41.167Z,11.40
2023-01-31T06:43:41.150Z,11.90
2023-01-31T06:44:41.157Z,17.30
2023-01-31T06:45:41.212Z,15.80
2023-01-31T06:46:41.141Z,12.70
2023-01-31T06:47:41.102Z,10.70
2023-01-31T06:48:41.110Z,12.90
2023-01-31T06:49:41.085Z,14.90
2023-01-31T06:50:41.097Z,14.20
2023-01-31T06:51:41.077Z,13.40
2023-01-31T06:52:41.074Z,11.80
2023-01-31T06:53:41.039Z,14.30
2023-01-31T06:54:41.031Z,11.50
2023-01-31T06:55:41.020Z,12.90
2023-01-31T06:56:41.038Z,16.00
2023-01-31T06:57:41.011Z,15.80
2023-01-31T06:58:41.001Z,12.60
2023-01-31T06:59:40.973Z,9.80
2023-01-31T07:00:40.963Z,11.30
2023-01-31T07:01:41.062Z,13.20
2023-01-31T07:02:40.943Z,11.30
2023-01-31T07:03:40.940Z,12.70
2023-01-31T07:04:40.961Z,11.10
2023-01-31T07:05:40.925Z,13.00
2023-01-31T07:06:40.923Z,15.20
2023-01-31T07:07:40.887Z,12.30
2023-01-31T07:08:40.880Z,13.20
2023-01-31T07:09:40.870Z,12.60
2023-01-31T07:10:40.845Z,11.60
2023-01-31T07:11:40.865Z,9.90
2023-01-31T07:12:40.838Z,19.30
2023-01-31T07:13:40.829Z,12.90
2023-01-31T07:14:40.818Z,13.90
2023-01-31T07:15:40.853Z,14.70
2023-01-31T07:16:40.817Z,15.40
2023-01-31T07:17:40.791Z,13.30
2023-01-31T07:18:40.781Z,10.20
2023-01-31T07:19:40.770Z,9.40
2023-01-31T07:20:40.753Z,16.10
2023-01-31T07:21:40.756Z,18.80
2023-01-31T07:22:40.741Z,15.20
2023-01-31T07:23:40.723Z,10.60
2023-01-31T07:24:40.711Z,10.80
2023-01-31T07:25:40.715Z,14.90
2023-01-31T07:26:40.722Z,12.30
2023-01-31T07:27:40.690Z,15.70
2023-01-31T07:28:40.670Z,16.70
2023-01-31T07:29:40.661Z,19.80
2023-01-31T07:30:40.645Z,12.10
2023-01-31T07:31:40.670Z,12.40
2023-01-31T07:32:40.636Z,12.90
2023-01-31T07:33:40.623Z,15.70
2023-01-31T07:34:40.618Z,13.70
2023-01-31T07:35:40.589Z,13.40
2023-01-31T07:36:40.610Z,17.20
2023-01-31T07:37:40.563Z,19.30
2023-01-31T07:38:40.555Z,11.40
2023-01-31T07:39:40.565Z,14.60
2023-01-31T07:40:40.527Z,16.60
2023-01-31T07:41:40.538Z,15.30
2023-01-31T07:42:40.513Z,13.80
2023-01-31T07:43:40.495Z,17.70
2023-01-31T07:44:40.499Z,13.50
2023-01-31T07:45:40.535Z,13.90
2023-01-31T07:46:40.502Z,19.10
2023-01-31T07:47:40.462Z,14.00
2023-01-31T07:48:40.483Z,14.30
2023-01-31T07:49:40.433Z,11.20
2023-01-31T07:50:40.445Z,13.40
2023-01-31T07:51:40.445Z,16.00
2023-01-31T07:52:40.415Z,17.30
2023-01-31T07:53:40.403Z,21.20
2023-01-31T07:54:40.388Z,18.10
2023-01-31T07:55:40.377Z,15.10
2023-01-31T07:56:40.376Z,15.80
2023-01-31T07:57:40.354Z,15.40
2023-01-31T07:58:40.335Z,26.10
2023-01-31T07:59:40.335Z,18.10
2023-01-31T08:00:40.322Z,14.30
2023-01-31T08:01:40.324Z,15.50
2023-01-31T08:02:40.309Z,13.40
2023-01-31T08:03:40.281Z,14.90
2023-01-31T08:04:40.293Z,23.30
2023-01-31T08:05:40.273Z,14.70
2023-01-31T08:06:40.282Z,11.10
2023-01-31T08:07:40.234Z,16.90
2023-01-31T08:08:40.231Z,16.30
2023-01-31T08:09:40.225Z,18.60
2023-01-31T08:10:40.230Z,18.20
2023-01-31T08:11:40.208Z,17.40
2023-01-31T08:12:40.196Z,15.50
2023-01-31T08:13:40.230Z,15.40
2023-01-31T08:14:40.167Z,18.70
2023-01-31T08:15:40.151Z,22.20
2023-01-31T08:16:40.169Z,14.30
2023-01-31T08:17:40.122Z,18.70
2023-01-31T08:18:40.124Z,16.30
2023-01-31T08:19:40.188Z,14.50
2023-01-31T08:20:40.140Z,18.80
2023-01-31T08:21:40.127Z,15.20
2023-01-31T08:22:40.076Z,15.30
2023-01-31T08:23:40.064Z,14.90
2023-01-31T08:24:40.067Z,18.00
2023-01-31T08:25:40.040Z,18.30
2023-01-31T08:26:40.076Z,16.70
2023-01-31T08:27:40.025Z,20.50
2023-01-31T08:28:40.027Z,18.20
2023-01-31T08:29:40.010Z,17.80
2023-01-31T08:30:40.048Z,19.70
2023-01-31T08:31:40.067Z,18.20
2023-01-31T08:32:39.982Z,12.90
2023-01-31T08:33:39.955Z,22.60
2023-01-31T08:34:39.968Z,14.80
2023-01-31T08:35:39.937Z,21.30
2023-01-31T08:36:39.971Z,19.30
2023-01-31T08:37:39.911Z,18.80
2023-01-31T08:38:39.960Z,18.00
2023-01-31T08:39:39.890Z,16.50
2023-01-31T08:40:39.880Z,14.70
2023-01-31T08:41:39.884Z,16.50
2023-01-31T08:42:39.885Z,15.20
2023-01-31T08:43:54.308Z,14.00
2023-01-31T08:44:39.841Z,20.00
2023-01-31T08:45:39.830Z,16.80
2023-01-31T08:46:39.846Z,15.70
2023-01-31T08:47:39.818Z,17.80
2023-01-31T08:48:39.804Z,14.70
2023-01-31T08:49:39.819Z,16.50
2023-01-31T08:50:40.627Z,17.40
2023-01-31T08:51:39.883Z,21.00
2023-01-31T08:52:39.776Z,20.10
2023-01-31T08:53:39.750Z,18.10
2023-01-31T08:54:39.808Z,17.20
2023-01-31T08:55:39.725Z,16.80
2023-01-31T08:56:39.746Z,18.00
2023-01-31T08:57:52.655Z,15.90
2023-01-31T08:58:39.694Z,13.40
2023-01-31T08:59:39.682Z,16.20
2023-01-31T09:00:39.678Z,12.10
2023-01-31T09:01:39.704Z,19.70
2023-01-31T09:02:39.702Z,12.00
2023-01-31T09:03:39.635Z,17.70
2023-01-31T09:04:40.237Z,17.50
2023-01-31T09:05:39.994Z,16.50
2023-01-31T09:06:39.996Z,18.40
2023-01-31T09:07:40.000Z,19.10
2023-01-31T09:08:39.849Z,19.50
2023-01-31T09:09:39.612Z,13.40
2023-01-31T09:10:39.704Z,18.70
2023-01-31T09:11:39.565Z,14.80
2023-01-31T09:12:39.543Z,13.50
2023-01-31T09:13:39.523Z,16.70
2023-01-31T09:14:39.509Z,19.00
2023-01-31T09:15:39.498Z,20.50
2023-01-31T09:16:41.294Z,19.20
2023-01-31T09:17:39.489Z,16.20
2023-01-31T09:18:39.486Z,15.30
2023-01-31T09:19:39.463Z,18.20
2023-01-31T09:20:39.445Z,19.80
2023-01-31T09:21:39.456Z,19.30
2023-01-31T09:22:39.442Z,14.20
2023-01-31T09:23:42.397Z,17.50
2023-01-31T09:24:39.392Z,16.70
2023-01-31T09:25:47.094Z,17.10
2023-01-31T09:26:39.465Z,26.50
2023-01-31T09:27:39.370Z,14.90
2023-01-31T09:28:39.364Z,13.00
2023-01-31T09:29:39.351Z,17.00
2023-01-31T09:30:39.356Z,15.20
2023-01-31T09:31:39.343Z,12.80
2023-01-31T09:32:39.311Z,15.80
2023-01-31T09:33:39.330Z,15.90
2023-01-31T09:34:39.291Z,16.40
2023-01-31T09:35:39.284Z,12.70
2023-01-31T09:36:39.316Z,18.20
2023-01-31T09:37:39.255Z,13.90
2023-01-31T09:38:39.244Z,16.30
2023-01-31T09:39:39.238Z,14.60
2023-01-31T09:40:39.220Z,18.40
2023-01-31T09:41:39.253Z,18.50
2023-01-31T09:42:39.201Z,16.20
2023-01-31T09:43:39.221Z,19.20
2023-01-31T09:44:39.182Z,18.70
2023-01-31T09:45:39.171Z,19.30
2023-01-31T09:46:39.280Z,13.60
2023-01-31T09:47:39.152Z,16.90
2023-01-31T09:48:39.142Z,17.50
2023-01-31T09:49:39.129Z,15.90
2023-01-31T09:50:39.147Z,18.10
2023-01-31T09:51:39.120Z,16.90
2023-01-31T09:52:39.146Z,16.10
2023-01-31T09:53:39.088Z,15.60
2023-01-31T09:54:39.074Z,19.30
2023-01-31T09:55:39.066Z,16.10
2023-01-31T09:56:39.089Z,16.10
2023-01-31T09:57:39.050Z,19.30
2023-01-31T09:58:39.054Z,13.90
2023-01-31T09:59:39.018Z,16.00
2023-01-31T10:00:39.060Z,14.40
2023-01-31T10:01:39.018Z,15.50
2023-01-31T10:02:38.989Z,11.20
2023-01-31T10:03:45.552Z,20.20
2023-01-31T10:04:38.956Z,20.10
2023-01-31T10:05:38.954Z,14.30
2023-01-31T10:06:38.956Z,15.40
2023-01-31T10:07:38.924Z,13.70
2023-01-31T10:08:38.924Z,13.70
2023-01-31T10:09:38.905Z,14.90
2023-01-31T10:10:38.900Z,15.30
2023-01-31T10:11:38.896Z,17.00
2023-01-31T10:12:38.895Z,16.40
2023-01-31T10:13:38.860Z,19.20
2023-01-31T10:14:38.848Z,16.40
2023-01-31T10:15:38.833Z,16.20
2023-01-31T10:16:38.849Z,15.30
2023-01-31T10:17:39.592Z,17.00
2023-01-31T10:18:38.810Z,14.80
2023-01-31T10:19:38.816Z,18.50
2023-01-31T10:20:38.788Z,15.50
2023-01-31T10:21:38.781Z,15.10
2023-01-31T10:22:38.769Z,17.30
2023-01-31T10:23:38.765Z,16.70
2023-01-31T10:24:38.731Z,20.40
2023-01-31T10:25:38.736Z,18.40
2023-01-31T10:26:38.747Z,17.20
2023-01-31T10:27:39.419Z,19.30
2023-01-31T10:28:38.698Z,20.40
2023-01-31T10:29:38.691Z,20.50
2023-01-31T10:30:38.703Z,17.80
2023-01-31T10:31:38.750Z,16.30
2023-01-31T10:32:38.657Z,14.60
2023-01-31T10:33:38.656Z,23.60
2023-01-31T10:34:38.646Z,22.10
2023-01-31T10:35:38.620Z,18.00
2023-01-31T10:36:38.633Z,21.50
2023-01-31T10:37:38.592Z,16.50
2023-01-31T10:38:38.593Z,19.90
2023-01-31T10:39:38.587Z,15.90
2023-01-31T10:40:38.572Z,15.20
2023-01-31T10:41:38.554Z,20.30
2023-01-31T10:42:38.581Z,22.20
2023-01-31T10:43:40.670Z,19.30
2023-01-31T10:44:38.527Z,20.50
2023-01-31T10:45:38.571Z,15.50
2023-01-31T10:46:38.503Z,15.00
2023-01-31T10:47:38.504Z,20.30
2023-01-31T10:48:38.481Z,18.80
2023-01-31T10:49:38.472Z,18.00
2023-01-31T10:50:38.459Z,13.60
2023-01-31T10:51:38.442Z,18.00
2023-01-31T10:52:38.447Z,18.30
2023-01-31T10:53:38.427Z,17.40
2023-01-31T10:54:38.413Z,16.80
2023-01-31T10:55:38.588Z,14.30
2023-01-31T10:56:38.953Z,18.30
2023-01-31T10:57:38.751Z,15.10
2023-01-31T10:58:38.459Z,16.10
2023-01-31T10:59:38.355Z,17.30
2023-01-31T11:00:38.347Z,16.50
2023-01-31T11:01:38.450Z,18.30
2023-01-31T11:02:38.403Z,14.90
2023-01-31T11:03:38.317Z,16.80
2023-01-31T11:04:38.311Z,17.60
2023-01-31T11:05:38.295Z,15.50
2023-01-31T11:06:38.291Z,17.40
2023-01-31T11:07:38.295Z,20.10
2023-01-31T11:08:38.260Z,15.20
2023-01-31T11:09:38.252Z,16.90
2023-01-31T11:10:38.255Z,16.80
2023-01-31T11:11:38.227Z,15.40
2023-01-31T11:12:38.237Z,17.40
2023-01-31T11:13:38.212Z,15.80
2023-01-31T11:14:38.205Z,16.50
2023-01-31T11:15:38.181Z,16.30
2023-01-31T11:16:38.241Z,17.10
2023-01-31T11:17:38.183Z,12.90
2023-01-31T11:18:38.148Z,18.40
2023-01-31T11:19:38.145Z,18.10
2023-01-31T11:20:38.152Z,13.50
2023-01-31T11:21:38.125Z,13.90
2023-01-31T11:22:38.125Z,13.20
2023-01-31T11:23:38.096Z,17.00
2023-01-31T11:24:38.089Z,14.80
2023-01-31T11:25:38.101Z,15.70
2023-01-31T11:26:38.104Z,13.60
2023-01-31T11:27:38.082Z,16.00
2023-01-31T11:28:38.050Z,14.70
2023-01-31T11:29:38.044Z,15.20
2023-01-31T11:30:38.057Z,14.80
2023-01-31T11:31:38.036Z,13.50
2023-01-31T11:32:38.013Z,15.00
2023-01-31T11:33:37.996Z,14.40
2023-01-31T11:34:37.987Z,10.40
2023-01-31T11:35:37.969Z,11.90
2023-01-31T11:36:37.955Z,16.80
2023-01-31T11:37:37.967Z,12.90
2023-01-31T11:38:37.941Z,13.50
2023-01-31T11:39:37.964Z,16.30
2023-01-31T11:40:37.938Z,16.10
2023-01-31T11:41:37.913Z,14.30
2023-01-31T11:42:37.913Z,12.00
2023-01-31T11:43:37.880Z,15.70
2023-01-31T11:44:37.875Z,13.10
2023-01-31T11:45:37.895Z,14.00
2023-01-31T11:46:37.924Z,14.40
2023-01-31T11:47:37.872Z,15.20
2023-01-31T11:48:37.833Z,14.20
2023-01-31T11:49:37.884Z,16.10
2023-01-31T11:50:37.811Z,13.90
2023-01-31T11:51:37.843Z,15.00
2023-01-31T11:52:37.805Z,11.80
2023-01-31T11:53:37.781Z,10.30
2023-01-31T11:54:37.769Z,13.90
2023-01-31T11:55:37.768Z,11.90
2023-01-31T11:56:37.748Z,11.00
2023-01-31T11:57:37.752Z,10.80
2023-01-31T11:58:37.720Z,13.00
2023-01-31T11:59:37.709Z,9.90
2023-01-31T12:00:37.703Z,10.30
2023-01-31T12:01:37.682Z,14.60
2023-01-31T12:02:37.739Z,14.80
2023-01-31T12:03:43.767Z,14.50
2023-01-31T12:04:37.661Z,11.90
2023-01-31T12:05:37.660Z,10.70
2023-01-31T12:06:37.664Z,7.50
2023-01-31T12:07:37.673Z,11.50
2023-01-31T12:08:37.630Z,9.30
2023-01-31T12:09:37.599Z,9.40
2023-01-31T12:10:37.594Z,11.90
2023-01-31T12:11:37.584Z,10.40
2023-01-31T12:12:37.583Z,9.50
2023-01-31T12:13:37.558Z,8.70
2023-01-31T12:14:37.544Z,8.70
2023-01-31T12:15:37.554Z,10.20
2023-01-31T12:16:37.731Z,10.00
2023-01-31T12:17:37.549Z,11.40
2023-01-31T12:18:37.503Z,10.40
2023-01-31T12:19:37.486Z,9.70
2023-01-31T12:20:37.479Z,9.70
2023-01-31T12:21:37.501Z,9.30
2023-01-31T12:22:37.487Z,11.00
2023-01-31T12:23:37.440Z,8.00
2023-01-31T12:24:37.457Z,10.00
2023-01-31T12:25:37.422Z,7.00
2023-01-31T12:26:37.432Z,6.80
2023-01-31T12:27:37.424Z,7.80
2023-01-31T12:28:37.401Z,7.50
2023-01-31T12:29:37.378Z,7.40
2023-01-31T12:30:37.442Z,7.00
2023-01-31T12:31:37.430Z,5.40
2023-01-31T12:32:37.371Z,6.40
2023-01-31T12:33:37.335Z,6.50
2023-01-31T12:34:47.069Z,7.50
2023-01-31T12:35:37.332Z,7.70
2023-01-31T12:36:37.326Z,5.60
2023-01-31T12:37:37.319Z,6.70
2023-01-31T12:38:37.295Z,6.50
2023-01-31T12:39:37.267Z,6.10
2023-01-31T12:40:37.260Z,5.80
2023-01-31T12:41:37.294Z,4.90
2023-01-31T12:42:37.256Z,6.50
2023-01-31T12:43:37.249Z,8.80
2023-01-31T12:44:37.224Z,8.90
2023-01-31T12:45:37.204Z,4.40
2023-01-31T12:46:37.230Z,4.80
2023-01-31T12:47:37.206Z,4.70
2023-01-31T12:48:37.176Z,6.50
2023-01-31T12:49:37.194Z,7.40
2023-01-31T12:50:37.151Z,6.20
2023-01-31T12:51:37.141Z,5.80
2023-01-31T12:52:37.147Z,6.60
2023-01-31T12:53:37.141Z,6.50
2023-01-31T12:54:37.157Z,5.40
2023-01-31T12:55:37.105Z,4.00
2023-01-31T12:56:37.093Z,3.70